sensor_id;sensor_type;location;lat;lon;timestamp;temperature;humidity
12841;DHT22;6487;48.626;12.486;2023-12-22T00:00:47;5.60;99.90
12841;DHT22;6487;48.626;12.486;2023-12-22T00:03:15;5.50;99.90
12841;DHT22;6487;48.626;12.486;2023-12-22T00:05:44;5.50;99.90
12841;DHT22;6487;48.626;12.486;2023-12-22T00:08:12;5.60;99.90
12841;DHT22;6487;48.626;12.486;2023-12-22T00:10:41;5.60;99.90
12841;DHT22;6487;48.626;12.486;2023-12-22T00:13:10;5.50;99.90
12841;DHT22;6487;48.626;12.486;2023-12-22T00:15:40;5.50;99.90
12841;DHT22;6487;48.626;12.486;2023-12-22T00:18:09;5.50;99.90
12841;DHT22;6487;48.626;12.486;2023-12-22T00:20:38;5.60;99.90
12841;DHT22;6487;48.626;12.486;2023-12-22T00:23:06;5.50;99.90
12841;DHT22;6487;48.626;12.486;2023-12-22T00:25:34;5.50;99.90
12841;DHT22;6487;48.626;12.486;2023-12-22T00:28:03;5.50;99.90
12841;DHT22;6487;48.626;12.486;2023-12-22T00:30:32;5.50;99.90
12841;DHT22;6487;48.626;12.486;2023-12-22T00:33:02;5.60;99.90
12841;DHT22;6487;48.626;12.486;2023-12-22T00:35:30;5.60;99.90
12841;DHT22;6487;48.626;12.486;2023-12-22T00:37:59;5.50;99.90
12841;DHT22;6487;48.626;12.486;2023-12-22T00:40:28;5.30;99.90
12841;DHT22;6487;48.626;12.486;2023-12-22T00:42:57;5.20;99.90
12841;DHT22;6487;48.626;12.486;2023-12-22T00:45:25;5.30;99.90
12841;DHT22;6487;48.626;12.486;2023-12-22T00:47:53;5.30;99.90
12841;DHT22;6487;48.626;12.486;2023-12-22T00:50:23;5.20;99.90
12841;DHT22;6487;48.626;12.486;2023-12-22T00:52:52;5.10;99.90
12841;DHT22;6487;48.626;12.486;2023-12-22T00:55:20;5.10;99.90
12841;DHT22;6487;48.626;12.486;2023-12-22T00:57:49;5.10;99.90
12841;DHT22;6487;48.626;12.486;2023-12-22T01:00:18;5.20;99.90
12841;DHT22;6487;48.626;12.486;2023-12-22T01:02:47;4.90;99.90
12841;DHT22;6487;48.626;12.486;2023-12-22T01:05:15;4.90;99.90
12841;DHT22;6487;48.626;12.486;2023-12-22T01:07:45;4.90;99.90
12841;DHT22;6487;48.626;12.486;2023-12-22T01:10:14;4.70;99.90
12841;DHT22;6487;48.626;12.486;2023-12-22T01:12:43;4.80;99.90
12841;DHT22;6487;48.626;12.486;2023-12-22T01:15:11;4.70;99.90
12841;DHT22;6487;48.626;12.486;2023-12-22T01:17:40;4.70;99.90
12841;DHT22;6487;48.626;12.486;2023-12-22T01:20:09;4.80;99.90
12841;DHT22;6487;48.626;12.486;2023-12-22T01:22:38;4.80;99.90
12841;DHT22;6487;48.626;12.486;2023-12-22T01:25:09;4.80;99.90
12841;DHT22;6487;48.626;12.486;2023-12-22T01:27:37;4.50;99.90
12841;DHT22;6487;48.626;12.486;2023-12-22T01:30:07;4.60;99.90
12841;DHT22;6487;48.626;12.486;2023-12-22T01:32:36;4.60;99.90
12841;DHT22;6487;48.626;12.486;2023-12-22T01:35:05;4.70;99.90
12841;DHT22;6487;48.626;12.486;2023-12-22T01:37:37;4.70;99.90
12841;DHT22;6487;48.626;12.486;2023-12-22T01:40:07;4.50;99.90
12841;DHT22;6487;48.626;12.486;2023-12-22T01:42:37;4.60;99.90
12841;DHT22;6487;48.626;12.486;2023-12-22T01:45:07;4.70;99.90
12841;DHT22;6487;48.626;12.486;2023-12-22T01:47:38;4.70;99.90
12841;DHT22;6487;48.626;12.486;2023-12-22T01:50:07;4.70;99.90
12841;DHT22;6487;48.626;12.486;2023-12-22T01:52:38;4.60;99.90
12841;DHT22;6487;48.626;12.486;2023-12-22T01:55:10;4.60;99.90
12841;DHT22;6487;48.626;12.486;2023-12-22T01:57:41;4.60;99.90
12841;DHT22;6487;48.626;12.486;2023-12-22T02:00:11;4.60;99.90
12841;DHT22;6487;48.626;12.486;2023-12-22T02:02:40;4.60;99.90
12841;DHT22;6487;48.626;12.486;2023-12-22T02:05:10;4.60;99.90
12841;DHT22;6487;48.626;12.486;2023-12-22T02:07:41;4.60;99.90
12841;DHT22;6487;48.626;12.486;2023-12-22T02:10:11;4.30;99.90
12841;DHT22;6487;48.626;12.486;2023-12-22T02:12:39;4.30;99.90
12841;DHT22;6487;48.626;12.486;2023-12-22T02:15:09;4.50;99.90
12841;DHT22;6487;48.626;12.486;2023-12-22T02:17:43;4.40;99.90
12841;DHT22;6487;48.626;12.486;2023-12-22T02:20:14;4.40;99.90
12841;DHT22;6487;48.626;12.486;2023-12-22T02:22:44;4.40;99.90
12841;DHT22;6487;48.626;12.486;2023-12-22T02:25:12;4.50;99.90
12841;DHT22;6487;48.626;12.486;2023-12-22T02:27:45;4.40;99.90
12841;DHT22;6487;48.626;12.486;2023-12-22T02:30:23;4.50;99.90
12841;DHT22;6487;48.626;12.486;2023-12-22T02:32:56;4.30;99.90
12841;DHT22;6487;48.626;12.486;2023-12-22T02:35:29;4.20;99.90
12841;DHT22;6487;48.626;12.486;2023-12-22T02:38:03;4.20;99.90
12841;DHT22;6487;48.626;12.486;2023-12-22T02:40:33;4.20;99.90
12841;DHT22;6487;48.626;12.486;2023-12-22T02:43:03;4.20;99.90
12841;DHT22;6487;48.626;12.486;2023-12-22T02:45:33;4.20;99.90
12841;DHT22;6487;48.626;12.486;2023-12-22T02:48:04;4.20;99.90
12841;DHT22;6487;48.626;12.486;2023-12-22T02:50:33;4.30;99.90
12841;DHT22;6487;48.626;12.486;2023-12-22T02:53:06;4.30;99.90
12841;DHT22;6487;48.626;12.486;2023-12-22T02:55:34;4.20;99.90
12841;DHT22;6487;48.626;12.486;2023-12-22T02:58:03;4.30;99.90
12841;DHT22;6487;48.626;12.486;2023-12-22T03:00:32;4.40;99.90
12841;DHT22;6487;48.626;12.486;2023-12-22T03:03:00;4.40;99.90
12841;DHT22;6487;48.626;12.486;2023-12-22T03:05:29;4.40;99.90
12841;DHT22;6487;48.626;12.486;2023-12-22T03:07:57;4.40;99.90
12841;DHT22;6487;48.626;12.486;2023-12-22T03:10:38;4.30;99.90
12841;DHT22;6487;48.626;12.486;2023-12-22T03:13:07;4.40;99.90
12841;DHT22;6487;48.626;12.486;2023-12-22T03:15:35;4.30;99.90
12841;DHT22;6487;48.626;12.486;2023-12-22T03:18:04;4.10;99.90
12841;DHT22;6487;48.626;12.486;2023-12-22T03:20:32;4.20;99.90
12841;DHT22;6487;48.626;12.486;2023-12-22T03:23:04;4.40;99.90
12841;DHT22;6487;48.626;12.486;2023-12-22T03:25:34;4.20;99.90
12841;DHT22;6487;48.626;12.486;2023-12-22T03:28:03;4.20;99.90
12841;DHT22;6487;48.626;12.486;2023-12-22T03:30:32;4.30;99.90
12841;DHT22;6487;48.626;12.486;2023-12-22T03:33:03;4.40;99.90
12841;DHT22;6487;48.626;12.486;2023-12-22T03:35:33;4.20;99.90
12841;DHT22;6487;48.626;12.486;2023-12-22T03:38:01;4.20;99.90
12841;DHT22;6487;48.626;12.486;2023-12-22T03:40:30;4.20;99.90
12841;DHT22;6487;48.626;12.486;2023-12-22T03:43:01;4.30;99.90
12841;DHT22;6487;48.626;12.486;2023-12-22T03:45:29;4.30;99.90
12841;DHT22;6487;48.626;12.486;2023-12-22T03:47:58;4.20;99.90
12841;DHT22;6487;48.626;12.486;2023-12-22T03:50:26;4.20;99.90
12841;DHT22;6487;48.626;12.486;2023-12-22T03:52:58;4.30;99.90
12841;DHT22;6487;48.626;12.486;2023-12-22T03:55:26;4.30;99.90
12841;DHT22;6487;48.626;12.486;2023-12-22T03:57:54;4.30;99.90
12841;DHT22;6487;48.626;12.486;2023-12-22T04:00:24;4.30;99.90
12841;DHT22;6487;48.626;12.486;2023-12-22T04:02:53;4.10;99.90
12841;DHT22;6487;48.626;12.486;2023-12-22T04:05:24;4.20;99.90
12841;DHT22;6487;48.626;12.486;2023-12-22T04:07:52;4.20;99.90
12841;DHT22;6487;48.626;12.486;2023-12-22T04:10:21;4.20;99.90
12841;DHT22;6487;48.626;12.486;2023-12-22T04:12:49;4.00;99.90
12841;DHT22;6487;48.626;12.486;2023-12-22T04:15:18;4.00;99.90
12841;DHT22;6487;48.626;12.486;2023-12-22T04:17:48;4.00;99.90
12841;DHT22;6487;48.626;12.486;2023-12-22T04:20:20;4.00;99.90
12841;DHT22;6487;48.626;12.486;2023-12-22T04:23:01;3.90;99.90
12841;DHT22;6487;48.626;12.486;2023-12-22T04:25:29;3.80;99.90
12841;DHT22;6487;48.626;12.486;2023-12-22T04:27:58;3.90;99.90
12841;DHT22;6487;48.626;12.486;2023-12-22T04:30:26;3.80;99.90
12841;DHT22;6487;48.626;12.486;2023-12-22T04:33:00;3.90;99.90
12841;DHT22;6487;48.626;12.486;2023-12-22T04:35:29;3.90;99.90
12841;DHT22;6487;48.626;12.486;2023-12-22T04:37:57;4.00;99.90
12841;DHT22;6487;48.626;12.486;2023-12-22T04:40:26;4.00;99.90
12841;DHT22;6487;48.626;12.486;2023-12-22T04:42:55;4.10;99.90
12841;DHT22;6487;48.626;12.486;2023-12-22T04:45:26;4.00;99.90
12841;DHT22;6487;48.626;12.486;2023-12-22T04:47:54;3.90;99.90
12841;DHT22;6487;48.626;12.486;2023-12-22T04:50:25;3.90;99.90
12841;DHT22;6487;48.626;12.486;2023-12-22T04:52:53;4.00;99.90
12841;DHT22;6487;48.626;12.486;2023-12-22T04:55:22;3.90;99.90
12841;DHT22;6487;48.626;12.486;2023-12-22T04:57:50;3.80;99.90
12841;DHT22;6487;48.626;12.486;2023-12-22T05:00:19;3.90;99.90
12841;DHT22;6487;48.626;12.486;2023-12-22T05:02:47;4.00;99.90
12841;DHT22;6487;48.626;12.486;2023-12-22T05:05:16;3.90;99.90
12841;DHT22;6487;48.626;12.486;2023-12-22T05:07:46;3.80;99.90
12841;DHT22;6487;48.626;12.486;2023-12-22T05:10:15;3.70;99.90
12841;DHT22;6487;48.626;12.486;2023-12-22T05:12:49;3.60;99.90
12841;DHT22;6487;48.626;12.486;2023-12-22T05:15:17;3.80;99.90
12841;DHT22;6487;48.626;12.486;2023-12-22T05:17:46;3.70;99.90
12841;DHT22;6487;48.626;12.486;2023-12-22T05:20:15;3.80;99.90
12841;DHT22;6487;48.626;12.486;2023-12-22T05:22:43;3.80;99.90
12841;DHT22;6487;48.626;12.486;2023-12-22T05:25:14;3.70;99.90
12841;DHT22;6487;48.626;12.486;2023-12-22T05:27:46;3.70;99.90
12841;DHT22;6487;48.626;12.486;2023-12-22T05:30:15;3.70;99.90
12841;DHT22;6487;48.626;12.486;2023-12-22T05:32:44;3.70;99.90
12841;DHT22;6487;48.626;12.486;2023-12-22T05:35:12;3.60;99.90
12841;DHT22;6487;48.626;12.486;2023-12-22T05:37:41;3.70;99.90
12841;DHT22;6487;48.626;12.486;2023-12-22T05:40:10;3.80;99.90
12841;DHT22;6487;48.626;12.486;2023-12-22T05:42:44;3.70;99.90
12841;DHT22;6487;48.626;12.486;2023-12-22T05:45:13;3.80;99.90
12841;DHT22;6487;48.626;12.486;2023-12-22T05:47:47;3.70;99.90
12841;DHT22;6487;48.626;12.486;2023-12-22T05:50:16;3.70;99.90
12841;DHT22;6487;48.626;12.486;2023-12-22T05:52:45;3.60;99.90
12841;DHT22;6487;48.626;12.486;2023-12-22T05:55:14;3.40;99.90
12841;DHT22;6487;48.626;12.486;2023-12-22T05:57:46;3.50;99.90
12841;DHT22;6487;48.626;12.486;2023-12-22T06:00:16;3.60;99.90
12841;DHT22;6487;48.626;12.486;2023-12-22T06:02:45;3.50;99.90
12841;DHT22;6487;48.626;12.486;2023-12-22T06:05:14;3.60;99.90
12841;DHT22;6487;48.626;12.486;2023-12-22T06:07:43;3.60;99.90
12841;DHT22;6487;48.626;12.486;2023-12-22T06:10:11;3.60;99.90
12841;DHT22;6487;48.626;12.486;2023-12-22T06:12:40;3.60;99.90
12841;DHT22;6487;48.626;12.486;2023-12-22T06:15:10;3.70;99.90
12841;DHT22;6487;48.626;12.486;2023-12-22T06:17:41;3.70;99.90
12841;DHT22;6487;48.626;12.486;2023-12-22T06:20:10;3.60;99.90
12841;DHT22;6487;48.626;12.486;2023-12-22T06:22:39;3.60;99.90
12841;DHT22;6487;48.626;12.486;2023-12-22T06:25:10;3.70;99.90
12841;DHT22;6487;48.626;12.486;2023-12-22T06:27:39;3.60;99.90
12841;DHT22;6487;48.626;12.486;2023-12-22T06:30:10;3.70;99.90
12841;DHT22;6487;48.626;12.486;2023-12-22T06:32:39;3.60;99.90
12841;DHT22;6487;48.626;12.486;2023-12-22T06:35:08;3.60;99.90
12841;DHT22;6487;48.626;12.486;2023-12-22T06:37:42;3.60;99.90
12841;DHT22;6487;48.626;12.486;2023-12-22T06:40:14;3.60;99.90
12841;DHT22;6487;48.626;12.486;2023-12-22T06:42:42;3.60;99.90
12841;DHT22;6487;48.626;12.486;2023-12-22T06:45:12;3.50;99.90
12841;DHT22;6487;48.626;12.486;2023-12-22T06:47:41;3.60;99.90
12841;DHT22;6487;48.626;12.486;2023-12-22T06:50:09;3.50;99.90
12841;DHT22;6487;48.626;12.486;2023-12-22T06:52:41;3.50;99.90
12841;DHT22;6487;48.626;12.486;2023-12-22T06:55:10;3.60;99.90
12841;DHT22;6487;48.626;12.486;2023-12-22T06:57:38;3.40;99.90
12841;DHT22;6487;48.626;12.486;2023-12-22T07:00:09;3.50;99.90
12841;DHT22;6487;48.626;12.486;2023-12-22T07:02:42;3.60;99.90
12841;DHT22;6487;48.626;12.486;2023-12-22T07:05:30;3.60;99.90
12841;DHT22;6487;48.626;12.486;2023-12-22T07:08:04;3.50;99.90
12841;DHT22;6487;48.626;12.486;2023-12-22T07:10:34;3.50;99.90
12841;DHT22;6487;48.626;12.486;2023-12-22T07:13:05;3.50;99.90
12841;DHT22;6487;48.626;12.486;2023-12-22T07:15:35;3.60;99.90
12841;DHT22;6487;48.626;12.486;2023-12-22T07:18:04;3.70;99.90
12841;DHT22;6487;48.626;12.486;2023-12-22T07:20:33;3.70;99.90
12841;DHT22;6487;48.626;12.486;2023-12-22T07:23:01;3.70;99.90
12841;DHT22;6487;48.626;12.486;2023-12-22T07:25:29;3.60;99.90
12841;DHT22;6487;48.626;12.486;2023-12-22T07:28:04;3.70;99.90
12841;DHT22;6487;48.626;12.486;2023-12-22T07:30:35;3.70;99.90
12841;DHT22;6487;48.626;12.486;2023-12-22T07:33:04;3.80;99.90
12841;DHT22;6487;48.626;12.486;2023-12-22T07:35:32;3.70;99.90
12841;DHT22;6487;48.626;12.486;2023-12-22T07:38:01;3.70;99.90
12841;DHT22;6487;48.626;12.486;2023-12-22T07:40:30;3.70;99.90
12841;DHT22;6487;48.626;12.486;2023-12-22T07:42:59;3.80;99.90
12841;DHT22;6487;48.626;12.486;2023-12-22T07:45:27;3.90;99.90
12841;DHT22;6487;48.626;12.486;2023-12-22T07:47:58;3.80;99.90
12841;DHT22;6487;48.626;12.486;2023-12-22T07:50:27;3.90;99.90
12841;DHT22;6487;48.626;12.486;2023-12-22T07:52:56;3.80;99.90
12841;DHT22;6487;48.626;12.486;2023-12-22T07:55:29;3.80;99.90
12841;DHT22;6487;48.626;12.486;2023-12-22T07:57:57;3.90;99.90
12841;DHT22;6487;48.626;12.486;2023-12-22T08:00:26;3.90;99.90
12841;DHT22;6487;48.626;12.486;2023-12-22T08:02:54;3.90;99.90
12841;DHT22;6487;48.626;12.486;2023-12-22T08:05:25;3.90;99.90
12841;DHT22;6487;48.626;12.486;2023-12-22T08:07:53;3.90;99.90
12841;DHT22;6487;48.626;12.486;2023-12-22T08:10:25;4.00;99.90
12841;DHT22;6487;48.626;12.486;2023-12-22T08:12:56;3.90;99.90
12841;DHT22;6487;48.626;12.486;2023-12-22T08:15:24;3.90;99.90
12841;DHT22;6487;48.626;12.486;2023-12-22T08:18:03;3.80;99.90
12841;DHT22;6487;48.626;12.486;2023-12-22T08:20:33;3.90;99.90
12841;DHT22;6487;48.626;12.486;2023-12-22T08:23:07;3.90;99.90
12841;DHT22;6487;48.626;12.486;2023-12-22T08:25:38;3.90;99.90
12841;DHT22;6487;48.626;12.486;2023-12-22T08:28:10;4.00;99.90
12841;DHT22;6487;48.626;12.486;2023-12-22T08:30:40;4.00;99.90
12841;DHT22;6487;48.626;12.486;2023-12-22T08:33:09;4.10;99.90
12841;DHT22;6487;48.626;12.486;2023-12-22T08:35:39;4.00;99.90
12841;DHT22;6487;48.626;12.486;2023-12-22T08:38:09;4.10;99.90
12841;DHT22;6487;48.626;12.486;2023-12-22T08:40:40;4.10;99.90
12841;DHT22;6487;48.626;12.486;2023-12-22T08:43:09;4.10;99.90
12841;DHT22;6487;48.626;12.486;2023-12-22T08:45:37;4.20;99.90
12841;DHT22;6487;48.626;12.486;2023-12-22T08:48:06;4.20;99.90
12841;DHT22;6487;48.626;12.486;2023-12-22T08:50:35;4.30;99.90
12841;DHT22;6487;48.626;12.486;2023-12-22T08:53:05;4.20;99.90
12841;DHT22;6487;48.626;12.486;2023-12-22T08:55:33;4.20;99.90
12841;DHT22;6487;48.626;12.486;2023-12-22T08:58:02;4.20;99.90
12841;DHT22;6487;48.626;12.486;2023-12-22T09:00:31;4.30;99.90
12841;DHT22;6487;48.626;12.486;2023-12-22T09:03:00;4.30;99.90
12841;DHT22;6487;48.626;12.486;2023-12-22T09:05:29;4.40;99.90
12841;DHT22;6487;48.626;12.486;2023-12-22T09:07:59;4.50;99.90
12841;DHT22;6487;48.626;12.486;2023-12-22T09:10:29;4.50;99.90
12841;DHT22;6487;48.626;12.486;2023-12-22T09:12:58;4.50;99.90
12841;DHT22;6487;48.626;12.486;2023-12-22T09:15:27;4.60;99.90
12841;DHT22;6487;48.626;12.486;2023-12-22T09:17:56;4.60;99.90
12841;DHT22;6487;48.626;12.486;2023-12-22T09:20:24;4.60;99.90
12841;DHT22;6487;48.626;12.486;2023-12-22T09:22:52;4.80;99.90
12841;DHT22;6487;48.626;12.486;2023-12-22T09:25:23;4.70;99.90
12841;DHT22;6487;48.626;12.486;2023-12-22T09:27:54;4.80;99.90
12841;DHT22;6487;48.626;12.486;2023-12-22T09:30:23;4.80;99.90
12841;DHT22;6487;48.626;12.486;2023-12-22T09:32:52;4.80;99.90
12841;DHT22;6487;48.626;12.486;2023-12-22T09:35:20;4.70;99.90
12841;DHT22;6487;48.626;12.486;2023-12-22T09:37:49;4.80;99.90
12841;DHT22;6487;48.626;12.486;2023-12-22T09:40:18;4.90;99.90
12841;DHT22;6487;48.626;12.486;2023-12-22T09:42:50;5.00;99.90
12841;DHT22;6487;48.626;12.486;2023-12-22T09:45:24;4.90;99.90
12841;DHT22;6487;48.626;12.486;2023-12-22T09:47:53;5.00;99.90
12841;DHT22;6487;48.626;12.486;2023-12-22T09:50:23;5.10;99.90
12841;DHT22;6487;48.626;12.486;2023-12-22T09:52:52;5.00;99.90
12841;DHT22;6487;48.626;12.486;2023-12-22T09:55:21;4.90;99.90
12841;DHT22;6487;48.626;12.486;2023-12-22T09:57:51;5.10;99.90
12841;DHT22;6487;48.626;12.486;2023-12-22T10:00:22;5.10;99.90
12841;DHT22;6487;48.626;12.486;2023-12-22T10:02:52;5.20;99.90
12841;DHT22;6487;48.626;12.486;2023-12-22T10:05:20;5.20;99.90
12841;DHT22;6487;48.626;12.486;2023-12-22T10:07:50;5.20;99.90
12841;DHT22;6487;48.626;12.486;2023-12-22T10:10:20;5.30;99.90
12841;DHT22;6487;48.626;12.486;2023-12-22T10:12:50;5.20;99.90
12841;DHT22;6487;48.626;12.486;2023-12-22T10:15:22;5.40;99.90
12841;DHT22;6487;48.626;12.486;2023-12-22T10:17:51;5.30;99.90
12841;DHT22;6487;48.626;12.486;2023-12-22T10:20:20;5.20;99.90
12841;DHT22;6487;48.626;12.486;2023-12-22T10:22:49;5.30;99.90
12841;DHT22;6487;48.626;12.486;2023-12-22T10:25:19;5.30;99.90
12841;DHT22;6487;48.626;12.486;2023-12-22T10:27:51;5.30;99.90
12841;DHT22;6487;48.626;12.486;2023-12-22T10:30:22;5.20;99.90
12841;DHT22;6487;48.626;12.486;2023-12-22T10:32:51;5.20;99.90
12841;DHT22;6487;48.626;12.486;2023-12-22T10:35:20;5.20;99.90
12841;DHT22;6487;48.626;12.486;2023-12-22T10:37:49;5.20;99.90
12841;DHT22;6487;48.626;12.486;2023-12-22T10:40:21;5.20;99.90
12841;DHT22;6487;48.626;12.486;2023-12-22T10:42:53;5.30;99.90
12841;DHT22;6487;48.626;12.486;2023-12-22T10:45:26;5.40;99.90
12841;DHT22;6487;48.626;12.486;2023-12-22T10:47:56;5.40;99.90
12841;DHT22;6487;48.626;12.486;2023-12-22T10:50:28;5.50;99.90
12841;DHT22;6487;48.626;12.486;2023-12-22T10:52:56;5.60;99.90
12841;DHT22;6487;48.626;12.486;2023-12-22T10:55:25;5.50;99.90
12841;DHT22;6487;48.626;12.486;2023-12-22T10:57:53;5.50;99.90
12841;DHT22;6487;48.626;12.486;2023-12-22T11:00:22;5.70;99.90
12841;DHT22;6487;48.626;12.486;2023-12-22T11:02:58;5.70;99.90
12841;DHT22;6487;48.626;12.486;2023-12-22T11:05:29;5.60;99.90
12841;DHT22;6487;48.626;12.486;2023-12-22T11:08:01;5.50;99.90
12841;DHT22;6487;48.626;12.486;2023-12-22T11:10:31;5.60;99.90
12841;DHT22;6487;48.626;12.486;2023-12-22T11:13:02;5.60;99.90
12841;DHT22;6487;48.626;12.486;2023-12-22T11:15:32;5.70;99.90
12841;DHT22;6487;48.626;12.486;2023-12-22T11:18:04;5.70;99.90
12841;DHT22;6487;48.626;12.486;2023-12-22T11:20:35;5.60;99.90
12841;DHT22;6487;48.626;12.486;2023-12-22T11:23:04;5.70;99.90
12841;DHT22;6487;48.626;12.486;2023-12-22T11:25:34;5.70;99.90
12841;DHT22;6487;48.626;12.486;2023-12-22T11:28:04;5.70;99.90
12841;DHT22;6487;48.626;12.486;2023-12-22T11:30:34;5.80;99.90
12841;DHT22;6487;48.626;12.486;2023-12-22T11:33:06;5.70;99.90
12841;DHT22;6487;48.626;12.486;2023-12-22T11:35:35;5.70;99.90
12841;DHT22;6487;48.626;12.486;2023-12-22T11:38:06;5.80;99.90
12841;DHT22;6487;48.626;12.486;2023-12-22T11:40:35;5.80;99.90
12841;DHT22;6487;48.626;12.486;2023-12-22T11:43:04;5.80;99.90
12841;DHT22;6487;48.626;12.486;2023-12-22T11:45:33;5.80;99.90
12841;DHT22;6487;48.626;12.486;2023-12-22T11:48:10;5.80;99.90
12841;DHT22;6487;48.626;12.486;2023-12-22T11:50:39;5.80;99.90
12841;DHT22;6487;48.626;12.486;2023-12-22T11:53:18;5.80;99.90
12841;DHT22;6487;48.626;12.486;2023-12-22T11:55:58;5.60;99.90
12841;DHT22;6487;48.626;12.486;2023-12-22T11:58:34;5.70;99.90
12841;DHT22;6487;48.626;12.486;2023-12-22T12:01:06;5.70;99.90
12841;DHT22;6487;48.626;12.486;2023-12-22T12:03:40;5.70;99.90
12841;DHT22;6487;48.626;12.486;2023-12-22T12:06:30;5.60;99.90
12841;DHT22;6487;48.626;12.486;2023-12-22T12:09:01;5.70;99.90
12841;DHT22;6487;48.626;12.486;2023-12-22T12:12:08;5.50;99.90
12841;DHT22;6487;48.626;12.486;2023-12-22T12:14:41;5.40;99.90
12841;DHT22;6487;48.626;12.486;2023-12-22T12:17:11;5.40;99.90
12841;DHT22;6487;48.626;12.486;2023-12-22T12:19:47;5.30;99.90
12841;DHT22;6487;48.626;12.486;2023-12-22T12:22:17;5.40;99.90
12841;DHT22;6487;48.626;12.486;2023-12-22T12:24:47;5.60;99.90
12841;DHT22;6487;48.626;12.486;2023-12-22T12:27:18;5.60;99.90
12841;DHT22;6487;48.626;12.486;2023-12-22T12:29:48;5.60;99.90
12841;DHT22;6487;48.626;12.486;2023-12-22T12:32:18;5.60;99.90
12841;DHT22;6487;48.626;12.486;2023-12-22T12:34:53;5.60;99.90
12841;DHT22;6487;48.626;12.486;2023-12-22T12:37:24;5.70;99.90
12841;DHT22;6487;48.626;12.486;2023-12-22T12:39:57;5.60;99.90
12841;DHT22;6487;48.626;12.486;2023-12-22T12:42:29;5.60;99.90
12841;DHT22;6487;48.626;12.486;2023-12-22T12:44:58;5.70;99.90
12841;DHT22;6487;48.626;12.486;2023-12-22T12:47:28;5.70;99.90
12841;DHT22;6487;48.626;12.486;2023-12-22T12:49:58;5.60;99.90
12841;DHT22;6487;48.626;12.486;2023-12-22T12:52:27;5.70;99.90
12841;DHT22;6487;48.626;12.486;2023-12-22T12:54:56;5.80;99.90
12841;DHT22;6487;48.626;12.486;2023-12-22T12:57:25;5.80;99.90
12841;DHT22;6487;48.626;12.486;2023-12-22T12:59:54;5.80;99.90
12841;DHT22;6487;48.626;12.486;2023-12-22T13:02:24;5.80;99.90
12841;DHT22;6487;48.626;12.486;2023-12-22T13:04:54;5.80;99.90
12841;DHT22;6487;48.626;12.486;2023-12-22T13:07:27;5.80;99.90
12841;DHT22;6487;48.626;12.486;2023-12-22T13:09:56;5.90;99.90
12841;DHT22;6487;48.626;12.486;2023-12-22T13:12:25;5.90;99.90
12841;DHT22;6487;48.626;12.486;2023-12-22T13:14:54;5.90;99.90
12841;DHT22;6487;48.626;12.486;2023-12-22T13:17:23;6.00;99.90
12841;DHT22;6487;48.626;12.486;2023-12-22T13:19:51;5.80;99.90
12841;DHT22;6487;48.626;12.486;2023-12-22T13:22:20;5.70;99.90
12841;DHT22;6487;48.626;12.486;2023-12-22T13:24:56;5.80;99.90
12841;DHT22;6487;48.626;12.486;2023-12-22T13:27:26;5.90;99.90
12841;DHT22;6487;48.626;12.486;2023-12-22T13:29:55;5.90;99.90
12841;DHT22;6487;48.626;12.486;2023-12-22T13:32:23;5.90;99.90
12841;DHT22;6487;48.626;12.486;2023-12-22T13:34:53;5.90;99.90
12841;DHT22;6487;48.626;12.486;2023-12-22T13:37:23;5.80;99.90
12841;DHT22;6487;48.626;12.486;2023-12-22T13:39:54;5.70;99.90
12841;DHT22;6487;48.626;12.486;2023-12-22T13:42:24;5.80;99.90
12841;DHT22;6487;48.626;12.486;2023-12-22T13:44:53;5.80;99.90
12841;DHT22;6487;48.626;12.486;2023-12-22T13:47:22;5.80;99.90
12841;DHT22;6487;48.626;12.486;2023-12-22T13:49:54;5.90;99.90
12841;DHT22;6487;48.626;12.486;2023-12-22T13:52:25;5.90;99.90
12841;DHT22;6487;48.626;12.486;2023-12-22T13:54:56;6.00;99.90
12841;DHT22;6487;48.626;12.486;2023-12-22T13:57:28;6.10;99.90
12841;DHT22;6487;48.626;12.486;2023-12-22T13:59:57;6.20;99.90
12841;DHT22;6487;48.626;12.486;2023-12-22T14:02:26;6.10;99.90
12841;DHT22;6487;48.626;12.486;2023-12-22T14:04:54;6.10;99.90
12841;DHT22;6487;48.626;12.486;2023-12-22T14:07:23;6.20;99.90
12841;DHT22;6487;48.626;12.486;2023-12-22T14:09:52;6.20;99.90
12841;DHT22;6487;48.626;12.486;2023-12-22T14:12:22;6.30;99.90
12841;DHT22;6487;48.626;12.486;2023-12-22T14:14:58;6.20;99.90
12841;DHT22;6487;48.626;12.486;2023-12-22T14:17:26;6.10;99.90
12841;DHT22;6487;48.626;12.486;2023-12-22T14:19:57;6.20;99.90
12841;DHT22;6487;48.626;12.486;2023-12-22T14:22:27;6.10;99.90
12841;DHT22;6487;48.626;12.486;2023-12-22T14:24:55;6.20;99.90
12841;DHT22;6487;48.626;12.486;2023-12-22T14:27:25;6.30;99.90
12841;DHT22;6487;48.626;12.486;2023-12-22T14:29:54;6.30;99.90
12841;DHT22;6487;48.626;12.486;2023-12-22T14:32:22;6.20;99.90
12841;DHT22;6487;48.626;12.486;2023-12-22T14:34:51;6.30;99.90
12841;DHT22;6487;48.626;12.486;2023-12-22T14:37:19;6.40;99.90
12841;DHT22;6487;48.626;12.486;2023-12-22T14:39:48;6.20;99.90
12841;DHT22;6487;48.626;12.486;2023-12-22T14:42:17;6.20;99.90
12841;DHT22;6487;48.626;12.486;2023-12-22T14:44:47;6.20;99.90
12841;DHT22;6487;48.626;12.486;2023-12-22T14:47:16;6.10;99.90
12841;DHT22;6487;48.626;12.486;2023-12-22T14:49:44;6.00;99.90
12841;DHT22;6487;48.626;12.486;2023-12-22T14:52:13;5.90;99.90
12841;DHT22;6487;48.626;12.486;2023-12-22T14:54:42;5.80;99.90
12841;DHT22;6487;48.626;12.486;2023-12-22T14:57:11;5.70;99.90
12841;DHT22;6487;48.626;12.486;2023-12-22T14:59:48;5.80;99.90
12841;DHT22;6487;48.626;12.486;2023-12-22T15:02:17;5.90;99.90
12841;DHT22;6487;48.626;12.486;2023-12-22T15:04:46;5.80;99.90
12841;DHT22;6487;48.626;12.486;2023-12-22T15:07:15;5.90;99.90
12841;DHT22;6487;48.626;12.486;2023-12-22T15:09:44;5.80;99.90
12841;DHT22;6487;48.626;12.486;2023-12-22T15:12:15;5.80;99.90
12841;DHT22;6487;48.626;12.486;2023-12-22T15:14:57;5.90;99.90
12841;DHT22;6487;48.626;12.486;2023-12-22T15:17:26;5.90;99.90
12841;DHT22;6487;48.626;12.486;2023-12-22T15:19:54;5.80;99.90
12841;DHT22;6487;48.626;12.486;2023-12-22T15:22:23;5.90;99.90
12841;DHT22;6487;48.626;12.486;2023-12-22T15:24:51;5.90;99.90
12841;DHT22;6487;48.626;12.486;2023-12-22T15:27:20;6.00;99.90
12841;DHT22;6487;48.626;12.486;2023-12-22T15:29:49;5.90;99.90
12841;DHT22;6487;48.626;12.486;2023-12-22T15:32:19;5.80;99.90
12841;DHT22;6487;48.626;12.486;2023-12-22T15:34:48;5.90;99.90
12841;DHT22;6487;48.626;12.486;2023-12-22T15:37:16;5.90;99.90
12841;DHT22;6487;48.626;12.486;2023-12-22T15:39:45;6.00;99.90
12841;DHT22;6487;48.626;12.486;2023-12-22T15:42:14;6.00;99.90
12841;DHT22;6487;48.626;12.486;2023-12-22T15:44:46;6.00;99.90
12841;DHT22;6487;48.626;12.486;2023-12-22T15:47:19;6.00;99.90
12841;DHT22;6487;48.626;12.486;2023-12-22T15:49:48;6.00;99.90
12841;DHT22;6487;48.626;12.486;2023-12-22T15:52:16;6.00;99.90
12841;DHT22;6487;48.626;12.486;2023-12-22T15:54:45;6.00;99.90
12841;DHT22;6487;48.626;12.486;2023-12-22T15:57:14;6.10;99.90
12841;DHT22;6487;48.626;12.486;2023-12-22T15:59:43;6.20;99.90
12841;DHT22;6487;48.626;12.486;2023-12-22T16:02:11;6.00;99.90